Anna-barbara — D5AD4 — position and weather

sailwx.info

Track history (hours):
 
Tides and Currents Weather Stations Pressure Air Temp Water Temp Dewpoint Dewpoint Depression Visibility Wind Speed Wind Dir Waves Ship Positions

Anna-barbara

Last reported at 2018-May-20 19:53 UTC. Time now 2018-Jun-19 01:26 UTC.
Position N 01°23' E 104°28'.
Warning: this ship's position is 29 days out of date.

Length 190 m; draft 6.6 m.

Type: Ship. MMSI: 636092302.

Date/timePositionNaut miles runAvg speedWind from/ knotsBaromVisibWave heightAir tempDewpointWater temp
2018-May-20 19:53N 01°23' E 104°28'513.2
2018-May-20 19:30N 01°21' E 104°24'712.5
2018-May-20 18:57N 01°17' E 104°18'612.3
2018-May-20 18:30N 01°17' E 104°12'611.9
2018-May-20 17:58N 01°16' E 104°06'511.8
2018-May-20 17:30N 01°15' E 104°01'4 8.6
2018-May-20 17:00N 01°17' E 103°57'2 2.7
2018-May-20 16:26N 01°17' E 103°55'0 0.0
2018-May-20 15:57N 01°17' E 103°55'0 0.0
2018-May-20 15:19N 01°17' E 103°55'0 0.0
2018-May-20 14:56N 01°17' E 103°55'0 0.0
2018-May-20 14:30N 01°17' E 103°55'0 0.0
2018-May-20 13:59N 01°17' E 103°55'0 0.0
2018-May-20 13:28N 01°17' E 103°55'0 0.0
2018-May-20 12:59N 01°17' E 103°55'0 0.0
2018-May-20 12:27N 01°17' E 103°55'0 0.0
2018-May-20 11:59N 01°17' E 103°55'0 0.0
2018-May-20 11:23N 01°17' E 103°55'0 0.0
2018-May-20 10:59N 01°17' E 103°55'0 0.0
2018-May-20 10:29N 01°17' E 103°55'0 0.1
2018-May-20 09:47N 01°18' E 103°55'0 0.2
2018-May-20 09:28N 01°18' E 103°55'0 0.0
2018-May-20 08:56N 01°18' E 103°55'0 0.1
2018-May-20 08:23N 01°18' E 103°55'0 0.0
2018-May-20 07:58N 01°18' E 103°55'0 0.0
2018-May-20 07:23N 01°18' E 103°55'0 0.1
2018-May-20 06:59N 01°18' E 103°55'0 0.0
2018-May-20 06:14N 01°18' E 103°55'0 0.0
2018-May-20 05:59N 01°18' E 103°55'0 0.0
2018-May-20 05:23N 01°18' E 103°55'0 0.1
2018-May-20 04:56N 01°18' E 103°55'0 0.0
2018-May-20 04:29N 01°18' E 103°55'0 0.1
2018-May-20 03:59N 01°18' E 103°55'0 0.2
2018-May-20 03:29N 01°17' E 103°55'0 0.0
2018-May-20 02:59N 01°17' E 103°55'0 0.3
2018-May-20 02:29N 01°18' E 103°55'0 0.1
2018-May-20 01:56N 01°17' E 103°55'0 0.0
2018-May-20 01:30N 01°17' E 103°55'2 3.8
2018-May-20 01:00N 01°16' E 103°57'2 4.5
2018-May-20 00:30N 01°15' E 103°59'3 5.7
2018-May-20 00:00N 01°14' E 103°56'2 4.9
2018-May-19 23:30N 01°13' E 103°54'3 5.2
2018-May-19 23:00N 01°11' E 103°52'3 5.3
2018-May-19 22:30N 01°10' E 103°49'3 6.6
2018-May-19 22:00N 01°09' E 103°47'3 5.3
2018-May-19 21:30N 01°07' E 103°45'2 4.2
2018-May-19 21:00N 01°05' E 103°43'3 6.9
2018-May-19 20:30N 01°03' E 103°40'5 9.3
2018-May-19 20:00N 01°04' E 103°36'612.5
2018-May-19 19:31N 01°08' E 103°31'612.8
2018-May-19 19:00N 01°11' E 103°25'712.9
2018-May-19 18:28N 01°15' E 103°20'712.8
2018-May-19 17:57N 01°20' E 103°14'  
Track history (hours):
 
Tides and Currents Weather Stations Pressure Air Temp Water Temp Dewpoint Dewpoint Depression Visibility Wind Speed Wind Dir Waves Ship Positions

Anna-barbara

Last reported at 2018-May-20 19:53 UTC. Time now 2018-Jun-19 01:26 UTC.
Position N 01°23' E 104°28'.
Warning: this ship's position is 29 days out of date.

Length 190 m; draft 6.6 m.

Type: Ship. MMSI: 636092302.

Date/timePositionNaut miles runAvg speedWind from/ knotsBaromVisibWave heightAir tempDewpointWater temp
2018-May-20 19:53N 01°23' E 104°28'513.2
2018-May-20 19:30N 01°21' E 104°24'712.5
2018-May-20 18:57N 01°17' E 104°18'612.3
2018-May-20 18:30N 01°17' E 104°12'611.9
2018-May-20 17:58N 01°16' E 104°06'511.8
2018-May-20 17:30N 01°15' E 104°01'4 8.6
2018-May-20 17:00N 01°17' E 103°57'2 2.7
2018-May-20 16:26N 01°17' E 103°55'0 0.0
2018-May-20 15:57N 01°17' E 103°55'0 0.0
2018-May-20 15:19N 01°17' E 103°55'0 0.0
2018-May-20 14:56N 01°17' E 103°55'0 0.0
2018-May-20 14:30N 01°17' E 103°55'0 0.0
2018-May-20 13:59N 01°17' E 103°55'0 0.0
2018-May-20 13:28N 01°17' E 103°55'0 0.0
2018-May-20 12:59N 01°17' E 103°55'0 0.0
2018-May-20 12:27N 01°17' E 103°55'0 0.0
2018-May-20 11:59N 01°17' E 103°55'0 0.0
2018-May-20 11:23N 01°17' E 103°55'0 0.0
2018-May-20 10:59N 01°17' E 103°55'0 0.0
2018-May-20 10:29N 01°17' E 103°55'0 0.1
2018-May-20 09:47N 01°18' E 103°55'0 0.2
2018-May-20 09:28N 01°18' E 103°55'0 0.0
2018-May-20 08:56N 01°18' E 103°55'0 0.1
2018-May-20 08:23N 01°18' E 103°55'0 0.0
2018-May-20 07:58N 01°18' E 103°55'0 0.0
2018-May-20 07:23N 01°18' E 103°55'0 0.1
2018-May-20 06:59N 01°18' E 103°55'0 0.0
2018-May-20 06:14N 01°18' E 103°55'0 0.0
2018-May-20 05:59N 01°18' E 103°55'0 0.0
2018-May-20 05:23N 01°18' E 103°55'0 0.1
2018-May-20 04:56N 01°18' E 103°55'0 0.0
2018-May-20 04:29N 01°18' E 103°55'0 0.1
2018-May-20 03:59N 01°18' E 103°55'0 0.2
2018-May-20 03:29N 01°17' E 103°55'0 0.0
2018-May-20 02:59N 01°17' E 103°55'0 0.3
2018-May-20 02:29N 01°18' E 103°55'0 0.1
2018-May-20 01:56N 01°17' E 103°55'0 0.0
2018-May-20 01:30N 01°17' E 103°55'2 3.8
2018-May-20 01:00N 01°16' E 103°57'2 4.5
2018-May-20 00:30N 01°15' E 103°59'3 5.7
2018-May-20 00:00N 01°14' E 103°56'2 4.9
2018-May-19 23:30N 01°13' E 103°54'3 5.2
2018-May-19 23:00N 01°11' E 103°52'3 5.3
2018-May-19 22:30N 01°10' E 103°49'3 6.6
2018-May-19 22:00N 01°09' E 103°47'3 5.3
2018-May-19 21:30N 01°07' E 103°45'2 4.2
2018-May-19 21:00N 01°05' E 103°43'3 6.9
2018-May-19 20:30N 01°03' E 103°40'5 9.3
2018-May-19 20:00N 01°04' E 103°36'612.5
2018-May-19 19:31N 01°08' E 103°31'612.8
2018-May-19 19:00N 01°11' E 103°25'712.9
2018-May-19 18:28N 01°15' E 103°20'712.8
2018-May-19 17:57N 01°20' E 103°14'  

Dump ship's entire track history